Terminal Aerodrome Forecast
Issued by NWS Nashville, TN

Home | Current Version | Previous Version | Text Only | Print | Product List | Glossary On
Versions: 1 2 3 4 5 6 7 8 9 10 11 12 13 14
000
FTUS44 KOHX 021720
TAFCSV
TAF
KCSV 021720Z 0218/0318 VRB05KT P6SM SCT045
     FM030100 00000KT P6SM FEW200
     FM030600 00000KT 3SM BR SCT150
     FM031400 27006KT P6SM SCT035=

USA.gov is the U.S. government's official web portal to all federal, state and local government web resources and services.